createdAt,value
2022-10-11T00:04:40.741Z,102400.84
2022-10-11T00:10:02.448Z,102404.69
2022-10-11T00:15:24.566Z,102412.19
2022-10-11T00:20:46.185Z,102420.69
2022-10-11T00:26:09.922Z,102418.13
2022-10-11T00:31:35.505Z,102425.81
2022-10-11T00:36:57.642Z,102425.81
2022-10-11T00:42:19.321Z,102430.72
2022-10-11T00:47:41.553Z,102423.69
2022-10-11T00:53:11.565Z,102423.25
2022-10-11T00:58:35.172Z,102433.47
2022-10-11T01:03:57.615Z,102433.69
2022-10-11T01:09:21.303Z,102433.69
2022-10-11T01:14:53.658Z,102432.84
2022-10-11T01:20:30.996Z,102435.19
2022-10-11T01:26:31.596Z,102438.81
2022-10-11T01:32:13.293Z,102432.63
2022-10-11T01:37:40.032Z,102433.91
2022-10-11T01:43:03.672Z,102434.31
2022-10-11T01:48:25.773Z,102442.00
2022-10-11T01:53:53.153Z,102442.00
2022-10-11T01:59:29.737Z,102450.53
2022-10-11T02:05:18.331Z,102452.66
2022-10-11T02:10:46.445Z,102443.69
2022-10-11T02:16:12.952Z,102449.44
2022-10-11T02:21:39.708Z,102449.66
2022-10-11T02:27:04.402Z,102445.16
2022-10-11T02:32:27.595Z,102440.50
2022-10-11T02:38:19.313Z,102443.25
2022-10-11T02:43:50.747Z,102446.25
2022-10-11T02:49:14.422Z,102439.00
2022-10-11T02:54:36.349Z,102441.97
2022-10-11T02:59:57.984Z,102442.41
2022-10-11T03:05:19.824Z,102451.78
2022-10-11T03:10:42.279Z,102460.09
2022-10-11T03:16:04.103Z,102466.69
2022-10-11T03:21:25.767Z,102467.53
2022-10-11T03:26:47.481Z,102464.97
2022-10-11T03:32:09.106Z,102471.59
2022-10-11T03:37:30.760Z,102470.94
2022-10-11T03:42:52.410Z,102463.69
2022-10-11T03:48:14.147Z,102468.38
2022-10-11T03:53:35.818Z,102481.38
2022-10-11T03:58:57.544Z,102486.91
2022-10-11T04:04:19.189Z,102485.41
2022-10-11T04:09:40.897Z,102496.50
2022-10-11T04:15:02.585Z,102502.25
2022-10-11T04:20:24.308Z,102503.31
2022-10-11T04:25:47.092Z,102504.38
2022-10-11T04:31:09.018Z,102511.81
2022-10-11T04:36:33.138Z,102513.94
2022-10-11T04:41:54.830Z,102512.03
2022-10-11T04:47:16.612Z,102518.66
2022-10-11T04:52:38.291Z,102526.13
2022-10-11T04:58:00.188Z,102522.66
2022-10-11T05:03:21.941Z,102528.19
2022-10-11T05:08:43.547Z,102526.66
2022-10-11T05:14:05.286Z,102528.59
2022-10-11T05:19:27.079Z,102530.50
2022-10-11T05:24:48.767Z,102536.03
2022-10-11T05:30:11.022Z,102541.59
2022-10-11T05:35:32.678Z,102544.56
2022-10-11T05:40:54.847Z,102547.13
2022-10-11T05:46:16.794Z,102550.97
2022-10-11T05:51:38.522Z,102550.13
2022-10-11T05:57:00.249Z,102549.28
2022-10-11T06:02:21.935Z,102552.22
2022-10-11T06:07:43.611Z,102554.34
2022-10-11T06:13:06.499Z,102564.38
2022-10-11T06:18:28.181Z,102573.94
2022-10-11T06:23:51.068Z,102575.00
2022-10-11T06:29:12.722Z,102584.19
2022-10-11T06:34:34.456Z,102580.38
2022-10-11T06:39:56.101Z,102586.34
2022-10-11T06:45:17.783Z,102585.72
2022-10-11T06:50:58.499Z,102604.53
2022-10-11T06:56:20.638Z,102610.34
2022-10-11T07:01:42.987Z,102621.00
2022-10-11T07:07:04.665Z,102614.84
2022-10-11T07:12:26.405Z,102620.50
2022-10-11T07:17:48.048Z,102632.47
2022-10-11T07:23:09.689Z,102630.84
2022-10-11T07:28:31.752Z,102642.84
2022-10-11T07:33:53.698Z,102640.25
2022-10-11T07:39:15.354Z,102645.06
2022-10-11T07:44:37.012Z,102650.69
2022-10-11T07:49:58.722Z,102641.38
2022-10-11T07:55:20.375Z,102645.38
2022-10-11T08:00:43.236Z,102649.88
2022-10-11T08:06:07.770Z,102642.56
2022-10-11T08:11:33.300Z,102638.78
2022-10-11T08:16:54.854Z,102646.16
2022-10-11T08:22:16.638Z,102642.28
2022-10-11T08:27:38.285Z,102653.19
2022-10-11T08:33:02.994Z,102654.91
2022-10-11T08:38:26.668Z,102663.75
2022-10-11T08:44:05.023Z,102655.69
2022-10-11T08:49:31.638Z,102661.84
2022-10-11T08:55:08.257Z,102668.66
2022-10-11T09:00:33.210Z,102659.88
2022-10-11T09:06:18.302Z,102657.72
2022-10-11T09:12:02.966Z,102664.53
2022-10-11T09:17:45.706Z,102661.06
2022-10-11T09:23:17.805Z,102660.41
2022-10-11T09:29:01.233Z,102666.09
2022-10-11T09:34:32.577Z,102669.28
2022-10-11T09:40:00.360Z,102670.78
2022-10-11T09:45:22.274Z,102667.53
2022-10-11T09:50:44.528Z,102669.03
2022-10-11T09:56:06.862Z,102668.59
2022-10-11T10:01:30.066Z,102670.72
2022-10-11T10:07:10.777Z,102669.00
2022-10-11T10:12:32.497Z,102669.41
2022-10-11T10:17:54.295Z,102674.53
2022-10-11T10:23:25.058Z,102662.56
2022-10-11T10:29:05.010Z,102660.00
2022-10-11T10:34:38.083Z,102648.47
2022-10-11T10:40:09.172Z,102658.69
2022-10-11T10:46:16.807Z,102652.31
2022-10-11T10:51:53.333Z,102651.88
2022-10-11T10:57:29.198Z,102651.00
2022-10-11T11:02:58.853Z,102649.50
2022-10-11T11:08:55.038Z,102645.00
2022-10-11T11:14:22.333Z,102648.00
2022-10-11T11:19:58.285Z,102639.47
2022-10-11T11:25:25.775Z,102633.47
2022-10-11T11:31:12.357Z,102630.69
2022-10-11T11:36:44.363Z,102630.03
2022-10-11T11:42:13.587Z,102624.50
2022-10-11T11:47:43.864Z,102615.53
2022-10-11T11:53:13.675Z,102600.63
2022-10-11T11:58:52.493Z,102602.31
2022-10-11T12:04:28.863Z,102592.50
2022-10-11T12:09:54.662Z,102585.44
2022-10-11T12:15:23.608Z,102584.59
2022-10-11T12:20:45.369Z,102593.13
2022-10-11T12:26:16.094Z,102587.38
2022-10-11T12:31:41.308Z,102578.41
2022-10-11T12:37:17.656Z,102575.63
2022-10-11T12:42:39.472Z,102568.59
2022-10-11T12:48:38.411Z,102569.25
2022-10-11T12:54:27.566Z,102564.94
2022-10-11T12:59:51.620Z,102564.09
2022-10-11T13:05:22.308Z,102564.09
2022-10-11T13:10:46.254Z,102561.34
2022-10-11T13:16:20.655Z,102557.50
2022-10-11T13:21:43.722Z,102551.97
2022-10-11T13:27:07.209Z,102552.19
2022-10-11T13:32:31.187Z,102547.47
2022-10-11T13:37:52.928Z,102540.00
2022-10-11T13:43:15.819Z,102533.63
2022-10-11T13:48:41.423Z,102532.78
2022-10-11T13:54:04.966Z,102538.72
2022-10-11T13:59:28.344Z,102535.75
2022-10-11T14:04:50.510Z,102537.44
2022-10-11T14:10:20.984Z,102532.97
2022-10-11T14:15:42.656Z,102529.34
2022-10-11T14:21:19.461Z,102524.47
2022-10-11T14:26:50.665Z,102519.97
2022-10-11T14:32:18.926Z,102514.63
2022-10-11T14:37:40.621Z,102505.47
2022-10-11T14:43:02.296Z,102516.34
2022-10-11T14:48:50.150Z,102511.00
2022-10-11T14:54:05.867Z,102502.69
2022-10-11T14:59:32.776Z,102500.75
2022-10-11T15:04:54.466Z,102499.06
2022-10-11T15:10:29.188Z,102489.69
2022-10-11T15:15:50.901Z,102484.34
2022-10-11T15:21:15.350Z,102470.50
2022-10-11T15:26:37.026Z,102459.41
2022-10-11T15:31:58.742Z,102458.53
2022-10-11T15:37:20.431Z,102467.91
2022-10-11T15:42:42.448Z,102464.31
2022-10-11T15:48:04.399Z,102462.38
2022-10-11T15:53:30.191Z,102462.38
2022-10-11T15:58:51.859Z,102459.81
2022-10-11T16:04:13.551Z,102460.88
2022-10-11T16:09:35.253Z,102458.34
2022-10-11T16:14:57.215Z,102455.09
2022-10-11T16:20:22.534Z,102465.31
2022-10-11T16:25:44.266Z,102474.69
2022-10-11T16:31:18.452Z,102476.41
2022-10-11T16:36:43.552Z,102468.50
2022-10-11T16:42:05.816Z,102473.41
2022-10-11T16:47:27.658Z,102467.00
2022-10-11T16:52:49.297Z,102468.91
2022-10-11T16:58:11.236Z,102464.44
2022-10-11T17:03:32.881Z,102472.75
2022-10-11T17:08:55.186Z,102483.84
2022-10-11T17:14:18.050Z,102482.97
2022-10-11T17:19:45.053Z,102477.63
2022-10-11T17:25:07.444Z,102478.69
2022-10-11T17:30:29.103Z,102479.75
2022-10-11T17:35:50.763Z,102497.44
2022-10-11T17:41:12.799Z,102484.00
2022-10-11T17:46:34.753Z,102491.25
2022-10-11T17:51:56.817Z,102487.41
2022-10-11T17:57:18.512Z,102487.00
2022-10-11T18:02:40.482Z,102491.19
2022-10-11T18:08:02.123Z,102488.69
2022-10-11T18:13:23.871Z,102482.38
2022-10-11T18:18:46.065Z,102480.06
2022-10-11T18:24:12.782Z,102486.84
2022-10-11T18:29:34.457Z,102492.81
2022-10-11T18:34:58.019Z,102481.63
2022-10-11T18:40:19.679Z,102481.41
2022-10-11T18:45:41.416Z,102482.91
2022-10-11T18:51:09.334Z,102479.56
2022-10-11T18:56:32.674Z,102477.00
2022-10-11T19:01:54.320Z,102471.44
2022-10-11T19:07:15.958Z,102471.69
2022-10-11T19:12:37.665Z,102476.59
2022-10-11T19:17:59.409Z,102469.16
2022-10-11T19:23:22.410Z,102467.22
2022-10-11T19:28:45.239Z,102472.38
2022-10-11T19:34:06.949Z,102474.50
2022-10-11T19:39:29.678Z,102472.16
2022-10-11T19:44:51.341Z,102466.00
2022-10-11T19:50:13.039Z,102471.09
2022-10-11T19:55:35.547Z,102471.50
2022-10-11T20:01:07.533Z,102477.47
2022-10-11T20:06:34.567Z,102472.13
2022-10-11T20:11:59.168Z,102478.97
2022-10-11T20:17:20.803Z,102475.78
2022-10-11T20:22:42.555Z,102474.91
2022-10-11T20:28:04.512Z,102469.81
2022-10-11T20:33:26.967Z,102488.38
2022-10-11T20:38:50.107Z,102487.31
2022-10-11T20:44:13.325Z,102479.88
2022-10-11T20:49:35.048Z,102484.34
2022-10-11T20:54:56.693Z,102480.28
2022-10-11T21:00:18.614Z,102482.84
2022-10-11T21:05:40.574Z,102476.22
2022-10-11T21:11:02.686Z,102481.31
2022-10-11T21:16:24.860Z,102479.81
2022-10-11T21:21:52.496Z,102479.59
2022-10-11T21:27:15.094Z,102471.72
2022-10-11T21:32:37.350Z,102479.59
2022-10-11T21:37:59.708Z,102475.31
2022-10-11T21:43:21.383Z,102475.72
2022-10-11T21:48:43.321Z,102478.72
2022-10-11T21:54:05.443Z,102468.28
2022-10-11T21:59:27.108Z,102454.81
2022-10-11T22:04:48.820Z,102459.72
2022-10-11T22:10:10.573Z,102457.34
2022-10-11T22:15:36.093Z,102451.81
2022-10-11T22:21:14.472Z,102452.66
2022-10-11T22:26:36.196Z,102447.13
2022-10-11T22:31:57.827Z,102443.72
2022-10-11T22:37:19.462Z,102445.81
2022-10-11T22:42:41.097Z,102439.84
2022-10-11T22:48:03.099Z,102437.94
2022-10-11T22:53:24.773Z,102430.88
2022-10-11T22:58:46.551Z,102439.44
2022-10-11T23:04:08.287Z,102435.78
2022-10-11T23:09:31.698Z,102435.34
2022-10-11T23:14:53.382Z,102440.91
2022-10-11T23:20:15.116Z,102431.94
2022-10-11T23:25:36.792Z,102426.38
2022-10-11T23:30:58.604Z,102421.28
2022-10-11T23:36:24.666Z,102419.56
2022-10-11T23:41:46.305Z,102413.38
2022-10-11T23:47:08.002Z,102423.59
2022-10-11T23:52:29.666Z,102413.78
2022-10-11T23:57:51.365Z,102424.88
